sensor_id;sensor_type;location;lat;lon;timestamp;P1;durP1;ratioP1;P2;durP2;ratioP2
29662;SDS011;16578;53.266;7.920;2023-05-14T00:02:18;9.32;;;8.32;;
29662;SDS011;16578;53.266;7.920;2023-05-14T00:04:44;9.43;;;7.68;;
29662;SDS011;16578;53.266;7.920;2023-05-14T00:07:10;11.18;;;7.93;;
29662;SDS011;16578;53.266;7.920;2023-05-14T00:09:35;9.40;;;8.40;;
29662;SDS011;16578;53.266;7.920;2023-05-14T00:12:01;9.35;;;8.38;;
29662;SDS011;16578;53.266;7.920;2023-05-14T00:14:27;12.63;;;8.88;;
29662;SDS011;16578;53.266;7.920;2023-05-14T00:16:52;10.25;;;8.73;;
29662;SDS011;16578;53.266;7.920;2023-05-14T00:19:18;13.48;;;9.25;;
29662;SDS011;16578;53.266;7.920;2023-05-14T00:21:43;10.00;;;8.75;;
29662;SDS011;16578;53.266;7.920;2023-05-14T00:24:09;9.77;;;8.75;;
29662;SDS011;16578;53.266;7.920;2023-05-14T00:26:35;13.63;;;8.77;;
29662;SDS011;16578;53.266;7.920;2023-05-14T00:29:00;11.63;;;8.70;;
29662;SDS011;16578;53.266;7.920;2023-05-14T00:31:26;11.88;;;9.40;;
29662;SDS011;16578;53.266;7.920;2023-05-14T00:33:51;11.25;;;8.55;;
29662;SDS011;16578;53.266;7.920;2023-05-14T00:36:17;13.75;;;9.35;;
29662;SDS011;16578;53.266;7.920;2023-05-14T00:38:42;9.10;;;7.85;;
29662;SDS011;16578;53.266;7.920;2023-05-14T00:41:08;10.57;;;8.85;;
29662;SDS011;16578;53.266;7.920;2023-05-14T00:43:33;9.70;;;7.88;;
29662;SDS011;16578;53.266;7.920;2023-05-14T00:45:59;9.98;;;8.10;;
29662;SDS011;16578;53.266;7.920;2023-05-14T00:48:25;9.18;;;8.07;;
29662;SDS011;16578;53.266;7.920;2023-05-14T00:50:50;9.93;;;8.38;;
29662;SDS011;16578;53.266;7.920;2023-05-14T00:53:19;12.40;;;9.18;;
29662;SDS011;16578;53.266;7.920;2023-05-14T00:55:45;9.98;;;8.77;;
29662;SDS011;16578;53.266;7.920;2023-05-14T00:58:12;9.63;;;8.30;;
29662;SDS011;16578;53.266;7.920;2023-05-14T01:00:38;9.63;;;8.63;;
29662;SDS011;16578;53.266;7.920;2023-05-14T01:03:04;9.73;;;8.63;;
29662;SDS011;16578;53.266;7.920;2023-05-14T01:08:30;9.07;;;8.02;;
29662;SDS011;16578;53.266;7.920;2023-05-14T01:11:20;9.68;;;8.43;;
29662;SDS011;16578;53.266;7.920;2023-05-14T01:14:00;11.15;;;8.25;;
29662;SDS011;16578;53.266;7.920;2023-05-14T01:16:43;9.77;;;7.78;;
29662;SDS011;16578;53.266;7.920;2023-05-14T01:19:16;9.30;;;8.15;;
29662;SDS011;16578;53.266;7.920;2023-05-14T01:21:50;14.60;;;7.85;;
29662;SDS011;16578;53.266;7.920;2023-05-14T01:24:16;8.90;;;7.53;;
29662;SDS011;16578;53.266;7.920;2023-05-14T01:26:41;9.52;;;7.28;;
29662;SDS011;16578;53.266;7.920;2023-05-14T01:29:10;8.48;;;7.20;;
29662;SDS011;16578;53.266;7.920;2023-05-14T01:31:42;9.57;;;7.88;;
29662;SDS011;16578;53.266;7.920;2023-05-14T01:34:10;13.30;;;7.88;;
29662;SDS011;16578;53.266;7.920;2023-05-14T01:36:35;8.73;;;7.88;;
29662;SDS011;16578;53.266;7.920;2023-05-14T01:39:02;9.90;;;7.93;;
29662;SDS011;16578;53.266;7.920;2023-05-14T01:41:28;9.52;;;7.57;;
29662;SDS011;16578;53.266;7.920;2023-05-14T01:43:55;8.82;;;7.28;;
29662;SDS011;16578;53.266;7.920;2023-05-14T01:46:21;8.05;;;6.93;;
29662;SDS011;16578;53.266;7.920;2023-05-14T01:48:48;9.48;;;8.20;;
29662;SDS011;16578;53.266;7.920;2023-05-14T01:51:14;10.80;;;7.93;;
29662;SDS011;16578;53.266;7.920;2023-05-14T01:53:40;8.60;;;7.80;;
29662;SDS011;16578;53.266;7.920;2023-05-14T01:56:05;8.25;;;7.35;;
29662;SDS011;16578;53.266;7.920;2023-05-14T01:58:31;10.55;;;7.80;;
29662;SDS011;16578;53.266;7.920;2023-05-14T02:00:57;8.10;;;7.30;;
29662;SDS011;16578;53.266;7.920;2023-05-14T02:03:22;8.07;;;7.28;;
29662;SDS011;16578;53.266;7.920;2023-05-14T02:05:48;10.93;;;7.55;;
29662;SDS011;16578;53.266;7.920;2023-05-14T02:08:13;7.90;;;7.20;;
29662;SDS011;16578;53.266;7.920;2023-05-14T02:10:39;11.60;;;7.28;;
29662;SDS011;16578;53.266;7.920;2023-05-14T02:13:05;10.68;;;7.53;;
29662;SDS011;16578;53.266;7.920;2023-05-14T02:15:30;8.48;;;7.53;;
29662;SDS011;16578;53.266;7.920;2023-05-14T02:17:56;10.70;;;8.35;;
29662;SDS011;16578;53.266;7.920;2023-05-14T02:20:21;8.88;;;8.13;;
29662;SDS011;16578;53.266;7.920;2023-05-14T02:22:47;10.77;;;8.05;;
29662;SDS011;16578;53.266;7.920;2023-05-14T02:25:12;9.93;;;7.90;;
29662;SDS011;16578;53.266;7.920;2023-05-14T02:27:38;8.90;;;7.78;;
29662;SDS011;16578;53.266;7.920;2023-05-14T02:30:04;8.43;;;7.50;;
29662;SDS011;16578;53.266;7.920;2023-05-14T02:32:30;9.23;;;8.07;;
29662;SDS011;16578;53.266;7.920;2023-05-14T02:34:55;9.52;;;8.18;;
29662;SDS011;16578;53.266;7.920;2023-05-14T02:37:21;8.40;;;7.65;;
29662;SDS011;16578;53.266;7.920;2023-05-14T02:39:46;8.90;;;7.97;;
29662;SDS011;16578;53.266;7.920;2023-05-14T02:42:13;10.95;;;7.80;;
29662;SDS011;16578;53.266;7.920;2023-05-14T02:44:38;9.50;;;8.50;;
29662;SDS011;16578;53.266;7.920;2023-05-14T02:47:04;9.70;;;7.75;;
29662;SDS011;16578;53.266;7.920;2023-05-14T02:49:30;8.65;;;7.75;;
29662;SDS011;16578;53.266;7.920;2023-05-14T02:51:55;8.57;;;7.85;;
29662;SDS011;16578;53.266;7.920;2023-05-14T02:54:21;8.13;;;7.43;;
29662;SDS011;16578;53.266;7.920;2023-05-14T02:56:47;9.13;;;8.18;;
29662;SDS011;16578;53.266;7.920;2023-05-14T02:59:12;9.02;;;8.15;;
29662;SDS011;16578;53.266;7.920;2023-05-14T03:01:38;9.38;;;8.18;;
29662;SDS011;16578;53.266;7.920;2023-05-14T03:04:04;10.80;;;8.38;;
29662;SDS011;16578;53.266;7.920;2023-05-14T03:06:29;9.90;;;8.90;;
29662;SDS011;16578;53.266;7.920;2023-05-14T03:08:55;10.10;;;9.15;;
29662;SDS011;16578;53.266;7.920;2023-05-14T03:11:20;9.85;;;8.93;;
29662;SDS011;16578;53.266;7.920;2023-05-14T03:13:46;9.55;;;8.52;;
29662;SDS011;16578;53.266;7.920;2023-05-14T03:16:12;11.13;;;8.80;;
29662;SDS011;16578;53.266;7.920;2023-05-14T03:18:37;10.05;;;9.13;;
29662;SDS011;16578;53.266;7.920;2023-05-14T03:21:03;11.13;;;9.68;;
29662;SDS011;16578;53.266;7.920;2023-05-14T03:23:28;10.70;;;9.65;;
29662;SDS011;16578;53.266;7.920;2023-05-14T03:25:56;10.55;;;9.55;;
29662;SDS011;16578;53.266;7.920;2023-05-14T03:28:21;12.00;;;9.48;;
29662;SDS011;16578;53.266;7.920;2023-05-14T03:30:47;11.73;;;9.05;;
29662;SDS011;16578;53.266;7.920;2023-05-14T03:33:12;10.00;;;9.10;;
29662;SDS011;16578;53.266;7.920;2023-05-14T03:35:38;9.75;;;8.75;;
29662;SDS011;16578;53.266;7.920;2023-05-14T03:38:03;9.50;;;8.60;;
29662;SDS011;16578;53.266;7.920;2023-05-14T03:40:29;9.32;;;8.00;;
29662;SDS011;16578;53.266;7.920;2023-05-14T03:42:55;11.25;;;8.32;;
29662;SDS011;16578;53.266;7.920;2023-05-14T03:45:21;8.90;;;8.15;;
29662;SDS011;16578;53.266;7.920;2023-05-14T03:47:46;11.07;;;9.13;;
29662;SDS011;16578;53.266;7.920;2023-05-14T03:50:12;9.30;;;8.32;;
29662;SDS011;16578;53.266;7.920;2023-05-14T03:52:37;10.75;;;8.82;;
29662;SDS011;16578;53.266;7.920;2023-05-14T03:55:03;10.70;;;8.65;;
29662;SDS011;16578;53.266;7.920;2023-05-14T03:57:30;11.15;;;9.02;;
29662;SDS011;16578;53.266;7.920;2023-05-14T03:59:57;9.53;;;8.63;;
29662;SDS011;16578;53.266;7.920;2023-05-14T04:02:22;10.70;;;9.20;;
29662;SDS011;16578;53.266;7.920;2023-05-14T04:04:48;10.30;;;9.02;;
29662;SDS011;16578;53.266;7.920;2023-05-14T04:07:13;9.10;;;8.30;;
29662;SDS011;16578;53.266;7.920;2023-05-14T04:09:39;14.05;;;8.60;;
29662;SDS011;16578;53.266;7.920;2023-05-14T04:12:04;9.43;;;8.40;;
29662;SDS011;16578;53.266;7.920;2023-05-14T04:14:30;11.23;;;8.65;;
29662;SDS011;16578;53.266;7.920;2023-05-14T04:16:56;10.30;;;9.10;;
29662;SDS011;16578;53.266;7.920;2023-05-14T04:19:21;9.13;;;8.25;;
29662;SDS011;16578;53.266;7.920;2023-05-14T04:21:47;9.40;;;8.43;;
29662;SDS011;16578;53.266;7.920;2023-05-14T04:24:13;12.43;;;9.18;;
29662;SDS011;16578;53.266;7.920;2023-05-14T04:26:38;9.95;;;8.85;;
29662;SDS011;16578;53.266;7.920;2023-05-14T04:29:04;9.75;;;8.82;;
29662;SDS011;16578;53.266;7.920;2023-05-14T04:31:29;9.45;;;8.02;;
29662;SDS011;16578;53.266;7.920;2023-05-14T04:33:55;9.60;;;8.52;;
29662;SDS011;16578;53.266;7.920;2023-05-14T04:36:21;10.02;;;9.13;;
29662;SDS011;16578;53.266;7.920;2023-05-14T04:38:46;9.40;;;8.40;;
29662;SDS011;16578;53.266;7.920;2023-05-14T04:41:12;9.65;;;8.68;;
29662;SDS011;16578;53.266;7.920;2023-05-14T04:43:38;9.88;;;8.80;;
29662;SDS011;16578;53.266;7.920;2023-05-14T04:46:04;10.00;;;9.00;;
29662;SDS011;16578;53.266;7.920;2023-05-14T04:48:29;11.90;;;8.55;;
29662;SDS011;16578;53.266;7.920;2023-05-14T04:50:55;10.77;;;9.68;;
29662;SDS011;16578;53.266;7.920;2023-05-14T04:53:21;10.60;;;9.65;;
29662;SDS011;16578;53.266;7.920;2023-05-14T04:55:46;11.05;;;9.68;;
29662;SDS011;16578;53.266;7.920;2023-05-14T04:58:12;10.57;;;9.48;;
29662;SDS011;16578;53.266;7.920;2023-05-14T05:00:37;10.00;;;9.00;;
29662;SDS011;16578;53.266;7.920;2023-05-14T05:03:04;9.60;;;8.63;;
29662;SDS011;16578;53.266;7.920;2023-05-14T05:05:29;10.38;;;9.40;;
29662;SDS011;16578;53.266;7.920;2023-05-14T05:07:55;11.07;;;9.85;;
29662;SDS011;16578;53.266;7.920;2023-05-14T05:10:21;10.07;;;9.18;;
29662;SDS011;16578;53.266;7.920;2023-05-14T05:12:46;11.90;;;8.82;;
29662;SDS011;16578;53.266;7.920;2023-05-14T05:15:12;8.82;;;8.02;;
29662;SDS011;16578;53.266;7.920;2023-05-14T05:17:37;10.25;;;9.15;;
29662;SDS011;16578;53.266;7.920;2023-05-14T05:20:03;9.95;;;9.05;;
29662;SDS011;16578;53.266;7.920;2023-05-14T05:22:31;9.80;;;8.57;;
29662;SDS011;16578;53.266;7.920;2023-05-14T05:24:57;9.57;;;8.30;;
29662;SDS011;16578;53.266;7.920;2023-05-14T05:27:23;9.90;;;9.00;;
29662;SDS011;16578;53.266;7.920;2023-05-14T05:29:50;10.23;;;9.13;;
29662;SDS011;16578;53.266;7.920;2023-05-14T05:32:15;10.18;;;9.18;;
29662;SDS011;16578;53.266;7.920;2023-05-14T05:34:41;11.75;;;8.45;;
29662;SDS011;16578;53.266;7.920;2023-05-14T05:37:06;9.38;;;8.48;;
29662;SDS011;16578;53.266;7.920;2023-05-14T05:39:33;8.70;;;7.80;;
29662;SDS011;16578;53.266;7.920;2023-05-14T05:41:59;9.35;;;8.07;;
29662;SDS011;16578;53.266;7.920;2023-05-14T05:44:25;9.27;;;8.38;;
29662;SDS011;16578;53.266;7.920;2023-05-14T05:46:51;9.82;;;8.32;;
29662;SDS011;16578;53.266;7.920;2023-05-14T05:49:17;8.68;;;7.78;;
29662;SDS011;16578;53.266;7.920;2023-05-14T05:51:42;10.30;;;8.70;;
29662;SDS011;16578;53.266;7.920;2023-05-14T05:54:08;8.38;;;7.57;;
29662;SDS011;16578;53.266;7.920;2023-05-14T05:56:33;8.88;;;7.82;;
29662;SDS011;16578;53.266;7.920;2023-05-14T05:58:59;11.35;;;8.00;;
29662;SDS011;16578;53.266;7.920;2023-05-14T06:01:24;9.07;;;7.63;;
29662;SDS011;16578;53.266;7.920;2023-05-14T06:03:50;12.65;;;7.82;;
29662;SDS011;16578;53.266;7.920;2023-05-14T06:06:16;8.00;;;7.20;;
29662;SDS011;16578;53.266;7.920;2023-05-14T06:08:42;8.00;;;7.28;;
29662;SDS011;16578;53.266;7.920;2023-05-14T06:11:07;8.90;;;7.35;;
29662;SDS011;16578;53.266;7.920;2023-05-14T06:13:33;8.40;;;7.60;;
29662;SDS011;16578;53.266;7.920;2023-05-14T06:15:58;8.57;;;7.68;;
29662;SDS011;16578;53.266;7.920;2023-05-14T06:18:24;8.15;;;7.35;;
29662;SDS011;16578;53.266;7.920;2023-05-14T06:20:49;8.18;;;7.10;;
29662;SDS011;16578;53.266;7.920;2023-05-14T06:23:15;7.88;;;7.07;;
29662;SDS011;16578;53.266;7.920;2023-05-14T06:25:41;8.25;;;7.38;;
29662;SDS011;16578;53.266;7.920;2023-05-14T06:28:06;10.82;;;7.47;;
29662;SDS011;16578;53.266;7.920;2023-05-14T06:30:32;8.52;;;7.20;;
29662;SDS011;16578;53.266;7.920;2023-05-14T06:32:57;9.80;;;7.28;;
29662;SDS011;16578;53.266;7.920;2023-05-14T06:35:23;7.55;;;6.85;;
29662;SDS011;16578;53.266;7.920;2023-05-14T06:37:48;9.90;;;7.80;;
29662;SDS011;16578;53.266;7.920;2023-05-14T06:40:14;8.98;;;7.68;;
29662;SDS011;16578;53.266;7.920;2023-05-14T06:42:40;9.88;;;7.43;;
29662;SDS011;16578;53.266;7.920;2023-05-14T06:45:05;9.75;;;7.57;;
29662;SDS011;16578;53.266;7.920;2023-05-14T06:47:31;8.27;;;7.47;;
29662;SDS011;16578;53.266;7.920;2023-05-14T06:49:57;7.50;;;6.70;;
29662;SDS011;16578;53.266;7.920;2023-05-14T06:52:23;8.27;;;6.80;;
29662;SDS011;16578;53.266;7.920;2023-05-14T06:54:49;8.43;;;7.40;;
29662;SDS011;16578;53.266;7.920;2023-05-14T06:57:15;8.23;;;7.43;;
29662;SDS011;16578;53.266;7.920;2023-05-14T06:59:40;8.27;;;7.47;;
29662;SDS011;16578;53.266;7.920;2023-05-14T07:02:06;9.05;;;7.43;;
29662;SDS011;16578;53.266;7.920;2023-05-14T07:04:31;8.77;;;7.68;;
29662;SDS011;16578;53.266;7.920;2023-05-14T07:06:57;7.88;;;7.07;;
29662;SDS011;16578;53.266;7.920;2023-05-14T07:09:23;9.85;;;7.22;;
29662;SDS011;16578;53.266;7.920;2023-05-14T07:11:48;8.55;;;7.05;;
29662;SDS011;16578;53.266;7.920;2023-05-14T07:14:14;8.23;;;7.20;;
29662;SDS011;16578;53.266;7.920;2023-05-14T07:16:39;13.15;;;7.22;;
29662;SDS011;16578;53.266;7.920;2023-05-14T07:19:06;8.00;;;7.10;;
29662;SDS011;16578;53.266;7.920;2023-05-14T07:21:31;8.25;;;6.80;;
29662;SDS011;16578;53.266;7.920;2023-05-14T07:23:57;8.52;;;7.10;;
29662;SDS011;16578;53.266;7.920;2023-05-14T07:26:22;7.18;;;6.57;;
29662;SDS011;16578;53.266;7.920;2023-05-14T07:28:48;6.80;;;6.20;;
29662;SDS011;16578;53.266;7.920;2023-05-14T07:31:14;6.85;;;6.15;;
29662;SDS011;16578;53.266;7.920;2023-05-14T07:33:39;5.65;;;5.15;;
29662;SDS011;16578;53.266;7.920;2023-05-14T07:36:05;5.35;;;4.95;;
29662;SDS011;16578;53.266;7.920;2023-05-14T07:38:31;6.60;;;5.25;;
29662;SDS011;16578;53.266;7.920;2023-05-14T07:40:56;6.18;;;5.53;;
29662;SDS011;16578;53.266;7.920;2023-05-14T07:43:22;5.88;;;5.28;;
29662;SDS011;16578;53.266;7.920;2023-05-14T07:45:51;5.85;;;5.32;;
29662;SDS011;16578;53.266;7.920;2023-05-14T07:48:16;5.50;;;4.93;;
29662;SDS011;16578;53.266;7.920;2023-05-14T07:50:42;5.57;;;5.07;;
29662;SDS011;16578;53.266;7.920;2023-05-14T07:53:08;6.28;;;5.55;;
29662;SDS011;16578;53.266;7.920;2023-05-14T07:55:33;5.30;;;4.80;;
29662;SDS011;16578;53.266;7.920;2023-05-14T07:57:59;5.55;;;4.75;;
29662;SDS011;16578;53.266;7.920;2023-05-14T08:00:24;7.07;;;4.90;;
29662;SDS011;16578;53.266;7.920;2023-05-14T08:02:50;5.43;;;4.65;;
29662;SDS011;16578;53.266;7.920;2023-05-14T08:05:16;5.53;;;4.93;;
29662;SDS011;16578;53.266;7.920;2023-05-14T08:07:42;5.32;;;4.63;;
29662;SDS011;16578;53.266;7.920;2023-05-14T08:10:08;5.55;;;4.70;;
29662;SDS011;16578;53.266;7.920;2023-05-14T08:12:34;5.30;;;4.80;;
29662;SDS011;16578;53.266;7.920;2023-05-14T08:14:59;5.20;;;4.60;;
29662;SDS011;16578;53.266;7.920;2023-05-14T08:17:25;9.30;;;5.07;;
29662;SDS011;16578;53.266;7.920;2023-05-14T08:19:51;4.90;;;4.40;;
29662;SDS011;16578;53.266;7.920;2023-05-14T08:22:16;5.10;;;4.50;;
29662;SDS011;16578;53.266;7.920;2023-05-14T08:24:42;4.38;;;3.97;;
29662;SDS011;16578;53.266;7.920;2023-05-14T08:27:08;4.60;;;4.20;;
29662;SDS011;16578;53.266;7.920;2023-05-14T08:29:33;4.50;;;4.10;;
29662;SDS011;16578;53.266;7.920;2023-05-14T08:31:59;4.25;;;3.80;;
29662;SDS011;16578;53.266;7.920;2023-05-14T08:34:25;3.83;;;3.53;;
29662;SDS011;16578;53.266;7.920;2023-05-14T08:36:51;4.70;;;3.60;;
29662;SDS011;16578;53.266;7.920;2023-05-14T08:39:17;4.40;;;3.78;;
29662;SDS011;16578;53.266;7.920;2023-05-14T08:41:42;3.55;;;3.25;;
29662;SDS011;16578;53.266;7.920;2023-05-14T08:44:12;3.67;;;3.38;;
29662;SDS011;16578;53.266;7.920;2023-05-14T08:46:42;3.65;;;3.35;;
29662;SDS011;16578;53.266;7.920;2023-05-14T08:49:14;3.83;;;3.53;;
29662;SDS011;16578;53.266;7.920;2023-05-14T08:51:43;3.55;;;3.05;;
29662;SDS011;16578;53.266;7.920;2023-05-14T08:56:40;4.00;;;3.05;;
29662;SDS011;16578;53.266;7.920;2023-05-14T08:59:09;5.53;;;3.03;;
29662;SDS011;16578;53.266;7.920;2023-05-14T09:01:35;3.90;;;2.95;;
29662;SDS011;16578;53.266;7.920;2023-05-14T09:04:01;3.30;;;2.92;;
29662;SDS011;16578;53.266;7.920;2023-05-14T09:06:32;4.25;;;2.80;;
29662;SDS011;16578;53.266;7.920;2023-05-14T09:09:04;3.22;;;2.92;;
29662;SDS011;16578;53.266;7.920;2023-05-14T09:11:29;4.38;;;2.95;;
29662;SDS011;16578;53.266;7.920;2023-05-14T09:13:55;5.05;;;2.90;;
29662;SDS011;16578;53.266;7.920;2023-05-14T09:16:21;3.20;;;2.92;;
29662;SDS011;16578;53.266;7.920;2023-05-14T09:21:15;3.58;;;3.17;;
29662;SDS011;16578;53.266;7.920;2023-05-14T09:23:42;3.80;;;3.38;;
29662;SDS011;16578;53.266;7.920;2023-05-14T09:26:09;4.43;;;3.15;;
29662;SDS011;16578;53.266;7.920;2023-05-14T09:28:37;4.70;;;3.08;;
29662;SDS011;16578;53.266;7.920;2023-05-14T09:31:04;3.30;;;2.67;;
29662;SDS011;16578;53.266;7.920;2023-05-14T09:33:30;2.50;;;2.30;;
29662;SDS011;16578;53.266;7.920;2023-05-14T09:36:00;3.83;;;2.45;;
29662;SDS011;16578;53.266;7.920;2023-05-14T09:38:32;3.42;;;3.05;;
29662;SDS011;16578;53.266;7.920;2023-05-14T09:40:58;4.30;;;2.90;;
29662;SDS011;16578;53.266;7.920;2023-05-14T09:43:24;3.22;;;2.85;;
29662;SDS011;16578;53.266;7.920;2023-05-14T09:45:51;5.53;;;3.22;;
29662;SDS011;16578;53.266;7.920;2023-05-14T09:48:17;3.25;;;2.65;;
29662;SDS011;16578;53.266;7.920;2023-05-14T09:50:44;3.13;;;2.83;;
29662;SDS011;16578;53.266;7.920;2023-05-14T09:53:10;3.53;;;2.70;;
29662;SDS011;16578;53.266;7.920;2023-05-14T09:55:36;2.70;;;2.50;;
29662;SDS011;16578;53.266;7.920;2023-05-14T09:58:02;3.92;;;3.03;;
29662;SDS011;16578;53.266;7.920;2023-05-14T10:00:31;4.03;;;2.97;;
29662;SDS011;16578;53.266;7.920;2023-05-14T10:02:58;3.65;;;2.63;;
29662;SDS011;16578;53.266;7.920;2023-05-14T10:05:29;3.40;;;3.05;;
29662;SDS011;16578;53.266;7.920;2023-05-14T10:07:59;3.47;;;2.80;;
29662;SDS011;16578;53.266;7.920;2023-05-14T10:10:31;4.22;;;3.30;;
29662;SDS011;16578;53.266;7.920;2023-05-14T10:13:02;2.88;;;2.58;;
29662;SDS011;16578;53.266;7.920;2023-05-14T10:15:30;5.95;;;3.30;;
29662;SDS011;16578;53.266;7.920;2023-05-14T10:18:02;3.30;;;2.88;;
29662;SDS011;16578;53.266;7.920;2023-05-14T10:20:31;3.50;;;3.10;;
29662;SDS011;16578;53.266;7.920;2023-05-14T10:22:58;3.30;;;3.00;;
29662;SDS011;16578;53.266;7.920;2023-05-14T10:25:24;3.38;;;3.08;;
29662;SDS011;16578;53.266;7.920;2023-05-14T10:27:50;4.75;;;3.35;;
29662;SDS011;16578;53.266;7.920;2023-05-14T10:30:16;3.38;;;3.08;;
29662;SDS011;16578;53.266;7.920;2023-05-14T10:32:46;3.53;;;2.80;;
29662;SDS011;16578;53.266;7.920;2023-05-14T10:35:16;3.13;;;2.83;;
29662;SDS011;16578;53.266;7.920;2023-05-14T10:37:44;3.00;;;2.80;;
29662;SDS011;16578;53.266;7.920;2023-05-14T10:40:10;3.75;;;3.30;;
29662;SDS011;16578;53.266;7.920;2023-05-14T10:42:37;3.28;;;2.70;;
29662;SDS011;16578;53.266;7.920;2023-05-14T10:45:08;3.75;;;3.45;;
29662;SDS011;16578;53.266;7.920;2023-05-14T10:47:38;3.30;;;2.92;;
29662;SDS011;16578;53.266;7.920;2023-05-14T10:52:33;3.50;;;2.67;;
29662;SDS011;16578;53.266;7.920;2023-05-14T10:55:04;4.13;;;2.75;;
29662;SDS011;16578;53.266;7.920;2023-05-14T10:57:34;4.68;;;2.70;;
29662;SDS011;16578;53.266;7.920;2023-05-14T11:00:01;2.70;;;2.50;;
29662;SDS011;16578;53.266;7.920;2023-05-14T11:02:28;3.40;;;2.88;;
29662;SDS011;16578;53.266;7.920;2023-05-14T11:04:59;3.60;;;2.78;;
29662;SDS011;16578;53.266;7.920;2023-05-14T11:10:03;4.15;;;2.72;;
29662;SDS011;16578;53.266;7.920;2023-05-14T11:12:28;3.83;;;2.75;;
29662;SDS011;16578;53.266;7.920;2023-05-14T11:14:55;3.90;;;2.53;;
29662;SDS011;16578;53.266;7.920;2023-05-14T11:17:23;2.80;;;2.60;;
29662;SDS011;16578;53.266;7.920;2023-05-14T11:19:50;3.00;;;2.80;;
29662;SDS011;16578;53.266;7.920;2023-05-14T11:22:15;4.35;;;2.97;;
29662;SDS011;16578;53.266;7.920;2023-05-14T11:24:41;4.78;;;2.70;;
29662;SDS011;16578;53.266;7.920;2023-05-14T11:27:07;2.58;;;2.28;;
29662;SDS011;16578;53.266;7.920;2023-05-14T11:29:34;3.42;;;2.70;;
29662;SDS011;16578;53.266;7.920;2023-05-14T11:32:01;2.42;;;2.22;;
29662;SDS011;16578;53.266;7.920;2023-05-14T11:34:30;2.58;;;2.38;;
29662;SDS011;16578;53.266;7.920;2023-05-14T11:36:56;2.38;;;2.13;;
29662;SDS011;16578;53.266;7.920;2023-05-14T11:39:21;2.40;;;2.13;;
29662;SDS011;16578;53.266;7.920;2023-05-14T11:41:47;3.53;;;2.35;;
29662;SDS011;16578;53.266;7.920;2023-05-14T11:44:13;3.20;;;2.03;;
29662;SDS011;16578;53.266;7.920;2023-05-14T11:46:38;5.18;;;2.65;;
29662;SDS011;16578;53.266;7.920;2023-05-14T11:49:04;5.22;;;2.50;;
29662;SDS011;16578;53.266;7.920;2023-05-14T11:51:30;7.20;;;2.50;;
29662;SDS011;16578;53.266;7.920;2023-05-14T11:53:56;3.67;;;2.70;;
29662;SDS011;16578;53.266;7.920;2023-05-14T11:56:23;2.58;;;2.33;;
29662;SDS011;16578;53.266;7.920;2023-05-14T11:58:48;3.28;;;2.15;;
29662;SDS011;16578;53.266;7.920;2023-05-14T12:01:19;3.72;;;2.58;;
29662;SDS011;16578;53.266;7.920;2023-05-14T12:03:44;2.33;;;2.13;;
29662;SDS011;16578;53.266;7.920;2023-05-14T12:06:10;5.80;;;2.53;;
29662;SDS011;16578;53.266;7.920;2023-05-14T12:08:36;3.65;;;2.45;;
29662;SDS011;16578;53.266;7.920;2023-05-14T12:11:02;2.78;;;2.50;;
29662;SDS011;16578;53.266;7.920;2023-05-14T12:13:31;5.90;;;3.00;;
29662;SDS011;16578;53.266;7.920;2023-05-14T12:15:57;4.45;;;2.83;;
29662;SDS011;16578;53.266;7.920;2023-05-14T12:18:27;2.83;;;2.63;;
29662;SDS011;16578;53.266;7.920;2023-05-14T12:20:54;3.10;;;2.67;;
29662;SDS011;16578;53.266;7.920;2023-05-14T12:23:29;3.00;;;2.67;;
29662;SDS011;16578;53.266;7.920;2023-05-14T12:26:05;2.95;;;2.30;;
29662;SDS011;16578;53.266;7.920;2023-05-14T12:28:32;2.17;;;2.00;;
29662;SDS011;16578;53.266;7.920;2023-05-14T12:30:58;4.28;;;2.33;;
29662;SDS011;16578;53.266;7.920;2023-05-14T12:33:27;2.67;;;2.47;;
29662;SDS011;16578;53.266;7.920;2023-05-14T12:35:53;2.60;;;2.40;;
29662;SDS011;16578;53.266;7.920;2023-05-14T12:38:21;2.50;;;2.30;;
29662;SDS011;16578;53.266;7.920;2023-05-14T12:40:46;3.65;;;2.90;;
29662;SDS011;16578;53.266;7.920;2023-05-14T12:43:12;2.75;;;2.53;;
29662;SDS011;16578;53.266;7.920;2023-05-14T12:45:38;2.45;;;2.25;;
29662;SDS011;16578;53.266;7.920;2023-05-14T12:48:03;2.50;;;2.30;;
29662;SDS011;16578;53.266;7.920;2023-05-14T12:50:30;2.80;;;2.20;;
29662;SDS011;16578;53.266;7.920;2023-05-14T12:52:55;3.70;;;2.40;;
29662;SDS011;16578;53.266;7.920;2023-05-14T12:55:21;2.15;;;1.95;;
29662;SDS011;16578;53.266;7.920;2023-05-14T12:57:47;4.25;;;2.47;;
29662;SDS011;16578;53.266;7.920;2023-05-14T13:00:12;2.85;;;2.58;;
29662;SDS011;16578;53.266;7.920;2023-05-14T13:02:39;2.00;;;1.88;;
29662;SDS011;16578;53.266;7.920;2023-05-14T13:05:04;4.47;;;2.38;;
29662;SDS011;16578;53.266;7.920;2023-05-14T13:07:30;5.30;;;2.42;;
29662;SDS011;16578;53.266;7.920;2023-05-14T13:09:56;2.17;;;2.05;;
29662;SDS011;16578;53.266;7.920;2023-05-14T13:12:22;2.42;;;2.22;;
29662;SDS011;16578;53.266;7.920;2023-05-14T13:14:47;3.90;;;2.58;;
29662;SDS011;16578;53.266;7.920;2023-05-14T13:17:13;3.47;;;2.38;;
29662;SDS011;16578;53.266;7.920;2023-05-14T13:19:39;2.72;;;2.53;;
29662;SDS011;16578;53.266;7.920;2023-05-14T13:22:04;2.60;;;2.40;;
29662;SDS011;16578;53.266;7.920;2023-05-14T13:24:30;2.90;;;2.63;;
29662;SDS011;16578;53.266;7.920;2023-05-14T13:26:55;2.60;;;2.40;;
29662;SDS011;16578;53.266;7.920;2023-05-14T13:29:21;3.95;;;2.22;;
29662;SDS011;16578;53.266;7.920;2023-05-14T13:31:47;1.98;;;1.88;;
29662;SDS011;16578;53.266;7.920;2023-05-14T13:34:13;3.08;;;2.50;;
29662;SDS011;16578;53.266;7.920;2023-05-14T13:36:38;10.43;;;2.22;;
29662;SDS011;16578;53.266;7.920;2023-05-14T13:39:06;3.30;;;2.35;;
29662;SDS011;16578;53.266;7.920;2023-05-14T13:41:31;3.50;;;2.70;;
29662;SDS011;16578;53.266;7.920;2023-05-14T13:44:01;3.25;;;2.45;;
29662;SDS011;16578;53.266;7.920;2023-05-14T13:46:27;2.67;;;2.28;;
29662;SDS011;16578;53.266;7.920;2023-05-14T13:48:53;3.58;;;2.55;;
29662;SDS011;16578;53.266;7.920;2023-05-14T13:51:19;2.97;;;2.13;;
29662;SDS011;16578;53.266;7.920;2023-05-14T13:53:44;3.10;;;2.00;;
29662;SDS011;16578;53.266;7.920;2023-05-14T13:56:10;2.35;;;2.15;;
29662;SDS011;16578;53.266;7.920;2023-05-14T13:58:35;2.45;;;1.92;;
29662;SDS011;16578;53.266;7.920;2023-05-14T14:01:01;3.05;;;2.25;;
29662;SDS011;16578;53.266;7.920;2023-05-14T14:03:27;3.88;;;2.00;;
29662;SDS011;16578;53.266;7.920;2023-05-14T14:05:52;3.05;;;2.05;;
29662;SDS011;16578;53.266;7.920;2023-05-14T14:08:18;2.67;;;2.30;;
29662;SDS011;16578;53.266;7.920;2023-05-14T14:10:44;2.75;;;2.30;;
29662;SDS011;16578;53.266;7.920;2023-05-14T14:13:10;2.47;;;2.25;;
29662;SDS011;16578;53.266;7.920;2023-05-14T14:15:36;3.15;;;2.45;;
29662;SDS011;16578;53.266;7.920;2023-05-14T14:18:01;3.45;;;2.28;;
29662;SDS011;16578;53.266;7.920;2023-05-14T14:20:27;3.03;;;2.67;;
29662;SDS011;16578;53.266;7.920;2023-05-14T14:22:53;2.65;;;2.45;;
29662;SDS011;16578;53.266;7.920;2023-05-14T14:25:19;3.92;;;2.30;;
29662;SDS011;16578;53.266;7.920;2023-05-14T14:27:44;3.78;;;2.17;;
29662;SDS011;16578;53.266;7.920;2023-05-14T14:30:10;4.93;;;2.13;;
29662;SDS011;16578;53.266;7.920;2023-05-14T14:32:46;2.70;;;2.50;;
29662;SDS011;16578;53.266;7.920;2023-05-14T14:35:13;3.90;;;1.88;;
29662;SDS011;16578;53.266;7.920;2023-05-14T14:37:40;2.45;;;2.00;;
29662;SDS011;16578;53.266;7.920;2023-05-14T14:40:09;4.30;;;2.20;;
29662;SDS011;16578;53.266;7.920;2023-05-14T14:42:35;2.35;;;2.15;;
29662;SDS011;16578;53.266;7.920;2023-05-14T14:45:01;2.13;;;1.90;;
29662;SDS011;16578;53.266;7.920;2023-05-14T14:47:28;2.25;;;2.05;;
29662;SDS011;16578;53.266;7.920;2023-05-14T14:49:54;2.25;;;2.00;;
29662;SDS011;16578;53.266;7.920;2023-05-14T14:52:21;1.98;;;1.83;;
29662;SDS011;16578;53.266;7.920;2023-05-14T14:54:51;2.58;;;2.38;;